Time;durP1;ratioP1;P1;durP2;ratioP2;P2;SDS_P1;SDS_P2;PMS_P1;PMS_P2;Temp;Humidity;BMP_temperature;BMP_pressure;BME280_temperature;BME280_humidity;BME280_pressure;Samples;Min_cycle;Max_cycle;Signal;HPM_P1;HPM_P2
2022/01/02 00:02:15;;;;;;;5.65;3.47;;;;;;;;;;4990082;28;20060;-81
2022/01/02 00:04:45;;;;;;;6.07;2.42;;;;;;;;;;4987296;28;20148;-81
2022/01/02 00:07:12;;;;;;;4.13;2.42;;;;;;;;;;4978606;28;20039;-81
2022/01/02 00:09:41;;;;;;;7.30;3.30;;;;;;;;;;4975833;28;20035;-80
2022/01/02 00:12:08;;;;;;;5.75;2.88;;;;;;;;;;4981803;28;20030;-81
2022/01/02 00:14:35;;;;;;;6.63;2.63;;;;;;;;;;4984518;28;20022;-80
2022/01/02 00:17:05;;;;;;;5.20;2.33;;;;;;;;;;4991792;28;20027;-79
2022/01/02 00:19:32;;;;;;;4.85;2.42;;;;;;;;;;4986152;28;20034;-81
2022/01/02 00:22:01;;;;;;;10.10;3.08;;;;;;;;;;4981531;28;20650;-81
2022/01/02 00:24:27;;;;;;;4.78;2.38;;;;;;;;;;4986947;28;20034;-81
2022/01/02 00:26:54;;;;;;;6.15;2.25;;;;;;;;;;4979316;28;20050;-80
2022/01/02 00:29:21;;;;;;;4.25;2.38;;;;;;;;;;4975501;28;20055;-81
2022/01/02 00:31:47;;;;;;;4.90;2.55;;;;;;;;;;4988285;28;20034;-81
2022/01/02 00:34:13;;;;;;;4.38;2.25;;;;;;;;;;4986062;28;20061;-81
2022/01/02 00:36:39;;;;;;;5.18;1.92;;;;;;;;;;4985503;28;20054;-81
2022/01/02 00:39:06;;;;;;;6.82;2.55;;;;;;;;;;4980396;28;20041;-81
2022/01/02 00:41:40;;;;;;;6.32;3.20;;;;;;;;;;4972972;28;20114;-81
2022/01/02 00:44:11;;;;;;;8.18;2.42;;;;;;;;;;4984741;28;20546;-80
2022/01/02 00:46:41;;;;;;;6.88;2.72;;;;;;;;;;4982893;28;20031;-81
2022/01/02 00:49:08;;;;;;;8.25;3.50;;;;;;;;;;4978861;28;20083;-81
2022/01/02 00:51:42;;;;;;;7.95;3.25;;;;;;;;;;4977412;28;20455;-81
2022/01/02 00:54:10;;;;;;;8.00;3.47;;;4.50;99.90;;;;;;4978733;28;20051;-82
2022/01/02 00:56:37;;;;;;;6.85;3.17;;;;;;;;;;4985768;28;20046;-80
2022/01/02 00:59:07;;;;;;;5.22;2.20;;;4.50;99.90;;;;;;4982718;28;20402;-80
2022/01/02 01:01:34;;;;;;;8.25;3.22;;;;;;;;;;4980332;28;20050;-82
2022/01/02 01:04:02;;;;;;;6.38;2.40;;;;;;;;;;4990009;28;20031;-81
2022/01/02 01:06:31;;;;;;;5.47;2.72;;;4.10;99.90;;;;;;4992631;28;20033;-81
2022/01/02 01:08:58;;;;;;;6.70;2.53;;;;;;;;;;4980654;28;20133;-81
2022/01/02 01:11:26;;;;;;;6.55;3.35;;;;;;;;;;4987637;28;20026;-81
2022/01/02 01:13:52;;;;;;;5.75;2.97;;;;;;;;;;4980989;28;20033;-80
2022/01/02 01:16:18;;;;;;;5.95;3.22;;;;;;;;;;4982366;28;20103;-80
2022/01/02 01:18:45;;;;;;;7.20;2.58;;;;;;;;;;4980378;28;20427;-81
2022/01/02 01:21:11;;;;;;;6.60;3.38;;;;;;;;;;4985392;28;20129;-80
2022/01/02 01:23:37;;;;;;;4.72;2.40;;;;;;;;;;4987537;28;20152;-81
2022/01/02 01:26:07;;;;;;;5.93;3.25;;;;;;;;;;4988749;28;20030;-82
2022/01/02 01:28:33;;;;;;;5.00;2.33;;;;;;;;;;4980164;28;20042;-81
2022/01/02 01:30:59;;;;;;;11.80;3.15;;;;;;;;;;4988854;28;20041;-81
2022/01/02 01:33:25;;;;;;;9.48;2.95;;;;;;;;;;4985043;28;20030;-80
2022/01/02 01:35:51;;;;;;;3.95;1.92;;;;;;;;;;4980947;28;20033;-81
2022/01/02 01:38:17;;;;;;;7.20;3.22;;;;;;;;;;4994908;28;20027;-80
2022/01/02 01:40:48;;;;;;;7.57;2.53;;;;;;;;;;4985169;28;20171;-81
2022/01/02 01:43:14;;;;;;;4.45;2.78;;;;;;;;;;4977811;28;20077;-81
2022/01/02 01:45:40;;;;;;;7.38;2.55;;;;;;;;;;4980454;28;20023;-81
2022/01/02 01:48:07;;;;;;;4.15;2.70;;;;;;;;;;4983582;28;20030;-81
2022/01/02 01:50:38;;;;;;;8.80;4.15;;;;;;;;;;4985240;28;20046;-81
2022/01/02 01:53:04;;;;;;;7.32;3.17;;;;;;;;;;4982267;28;20018;-81
2022/01/02 01:55:30;;;;;;;6.25;2.47;;;;;;;;;;4986477;28;20066;-80
2022/01/02 01:57:56;;;;;;;5.30;3.03;;;;;;;;;;4986821;28;20039;-80
2022/01/02 02:00:23;;;;;;;4.40;2.47;;;;;;;;;;4987522;28;20093;-81
2022/01/02 02:02:49;;;;;;;5.40;2.60;;;;;;;;;;4978217;28;20030;-80
2022/01/02 02:05:16;;;;;;;5.57;2.92;;;;;;;;;;4981760;28;20071;-80
2022/01/02 02:07:44;;;;;;;7.72;3.67;;;;;;;;;;4983659;28;20030;-81
2022/01/02 02:12:59;;;;;;;8.43;3.53;;;;;;;;;;4986052;28;20062;-81
2022/01/02 02:15:25;;;;;;;5.47;3.10;;;;;;;;;;4982585;28;20061;-80
2022/01/02 02:17:52;;;;;;;5.38;2.50;;;;;;;;;;4984483;28;20030;-81
2022/01/02 02:20:26;;;;;;;7.43;3.58;;;4.00;99.90;;;;;;4986018;28;20041;-80
2022/01/02 02:22:55;;;;;;;10.40;3.42;;;;;;;;;;4982299;28;20481;-80
2022/01/02 02:25:22;;;;;;;7.53;3.10;;;;;;;;;;4986365;28;20038;-80
2022/01/02 02:27:53;;;;;;;5.22;2.20;;;;;;;;;;4976218;28;20038;-80
2022/01/02 02:30:19;;;;;;;5.18;2.95;;;;;;;;;;4984605;28;20038;-80
2022/01/02 02:32:45;;;;;;;4.85;2.67;;;;;;;;;;4981774;28;20035;-80
2022/01/02 02:35:11;;;;;;;13.93;3.85;;;;;;;;;;4983667;28;20692;-81
2022/01/02 02:37:42;;;;;;;7.93;3.88;;;;;;;;;;4981722;28;20086;-81
2022/01/02 02:40:09;;;;;;;4.57;2.47;;;;;;;;;;4976173;28;20030;-81
2022/01/02 02:42:46;;;;;;;5.82;2.50;;;;;;;;;;4982511;28;20033;-81
2022/01/02 02:51:05;;;;;;;12.40;3.78;;;;;;;;;;4973147;28;20062;-80
2022/01/02 02:53:32;;;;;;;10.13;2.97;;;;;;;;;;4984755;28;20022;-80
2022/01/02 02:55:59;;;;;;;4.93;2.83;;;;;;;;;;4981587;28;20031;-81
2022/01/02 03:01:00;;;;;;;9.27;3.72;;;4.10;99.90;;;;;;4983362;28;20095;-80
2022/01/02 03:03:26;;;;;;;8.43;3.78;;;;;;;;;;4981530;28;20020;-81
2022/01/02 03:05:53;;;;;;;4.07;2.63;;;;;;;;;;4980751;28;20014;-81
2022/01/02 03:08:19;;;;;;;5.30;2.78;;;;;;;;;;4983037;28;20039;-81
2022/01/02 03:10:45;;;;;;;9.20;3.30;;;;;;;;;;4980927;28;20034;-81
2022/01/02 03:13:11;;;;;;;5.85;3.28;;;;;;;;;;4973528;28;20035;-80
2022/01/02 03:15:37;;;;;;;3.78;2.75;;;;;;;;;;4972697;28;20113;-80
2022/01/02 03:18:03;;;;;;;3.17;2.42;;;;;;;;;;4982606;28;20085;-80
2022/01/02 03:20:29;;;;;;;11.52;3.55;;;;;;;;;;4991807;28;20478;-80
2022/01/02 03:22:55;;;;;;;4.25;2.72;;;;;;;;;;4985390;28;20026;-80
2022/01/02 03:25:21;;;;;;;5.35;3.00;;;;;;;;;;4981516;28;20041;-79
2022/01/02 03:27:47;;;;;;;6.93;2.42;;;;;;;;;;4984931;28;20722;-81
2022/01/02 03:30:13;;;;;;;4.25;2.35;;;4.00;99.90;;;;;;4972336;28;20049;-80
2022/01/02 03:32:40;;;;;;;21.08;5.05;;;;;;;;;;4984943;28;20026;-80
2022/01/02 03:35:06;;;;;;;4.40;2.67;;;;;;;;;;4979476;28;20068;-81
2022/01/02 03:37:33;;;;;;;6.25;3.20;;;;;;;;;;4982348;28;20149;-80
2022/01/02 03:40:00;;;;;;;5.82;2.97;;;;;;;;;;4981708;28;20036;-81
2022/01/02 03:42:26;;;;;;;6.03;2.85;;;;;;;;;;4994754;28;20065;-81
2022/01/02 03:44:52;;;;;;;7.07;2.50;;;;;;;;;;4981703;28;20679;-81
2022/01/02 03:47:18;;;;;;;6.50;2.55;;;;;;;;;;4980725;28;20023;-80
2022/01/02 03:49:44;;;;;;;6.55;3.03;;;;;;;;;;4983185;28;20069;-80
2022/01/02 03:52:10;;;;;;;4.32;2.17;;;;;;;;;;4981614;28;20096;-81
2022/01/02 03:54:36;;;;;;;4.47;2.58;;;;;;;;;;4979114;28;20312;-80
2022/01/02 03:57:02;;;;;;;5.90;2.92;;;;;;;;;;4976103;28;20037;-80
2022/01/02 03:59:28;;;;;;;6.20;3.10;;;;;;;;;;4977786;28;20061;-80
2022/01/02 04:01:54;;;;;;;4.57;2.72;;;;;;;;;;4976507;28;20030;-82
2022/01/02 04:04:20;;;;;;;6.05;2.55;;;;;;;;;;4980767;28;20565;-81
2022/01/02 04:06:47;;;;;;;8.68;4.00;;;;;;;;;;4980680;28;20054;-81
2022/01/02 04:09:13;;;;;;;6.03;3.35;;;;;;;;;;4974185;28;20039;-80
2022/01/02 04:11:38;;;;;;;5.03;2.42;;;;;;;;;;4982688;28;20024;-81
2022/01/02 04:14:05;;;;;;;6.10;2.78;;;;;;;;;;4978112;28;20108;-81
2022/01/02 04:16:31;;;;;;;3.85;2.35;;;;;;;;;;4981869;28;20034;-80
2022/01/02 04:18:57;;;;;;;9.65;3.83;;;;;;;;;;4974979;28;20033;-80
2022/01/02 04:21:23;;;;;;;4.65;2.38;;;;;;;;;;4983570;28;20049;-80
2022/01/02 04:23:49;;;;;;;5.80;2.67;;;;;;;;;;4979498;28;20026;-81
2022/01/02 04:26:15;;;;;;;4.47;2.40;;;;;;;;;;4959293;28;20725;-80
2022/01/02 04:28:41;;;;;;;6.55;2.60;;;;;;;;;;4981505;28;20449;-81
2022/01/02 04:31:09;;;;;;;4.28;2.33;;;;;;;;;;4992151;28;20096;-81
2022/01/02 04:33:35;;;;;;;4.10;2.15;;;;;;;;;;4980723;28;20371;-80
2022/01/02 04:36:01;;;;;;;13.73;3.67;;;;;;;;;;4979818;28;20034;-80
2022/01/02 04:38:27;;;;;;;6.65;2.95;;;;;;;;;;4966503;28;20481;-81
2022/01/02 04:40:53;;;;;;;4.30;2.88;;;;;;;;;;4981801;28;20026;-80
2022/01/02 04:43:19;;;;;;;7.88;2.47;;;;;;;;;;4983802;28;20042;-81
2022/01/02 04:45:45;;;;;;;6.30;2.80;;;;;;;;;;4981551;28;20038;-80
2022/01/02 04:48:11;;;;;;;4.22;2.33;;;;;;;;;;4985455;28;20033;-80
2022/01/02 04:50:37;;;;;;;7.35;2.78;;;;;;;;;;4987239;28;20086;-80
2022/01/02 04:53:04;;;;;;;5.68;2.40;;;;;;;;;;4984529;28;20038;-80
2022/01/02 04:55:30;;;;;;;5.32;2.53;;;;;;;;;;4982479;28;20022;-80
2022/01/02 04:57:56;;;;;;;10.48;4.40;;;;;;;;;;4980329;28;20035;-80
2022/01/02 05:00:22;;;;;;;5.25;2.17;;;;;;;;;;4980538;28;20033;-81
2022/01/02 05:02:49;;;;;;;5.07;2.05;;;;;;;;;;4986092;28;20027;-80
2022/01/02 05:05:15;;;;;;;14.00;4.63;;;;;;;;;;4989444;28;20091;-80
2022/01/02 05:07:41;;;;;;;6.68;3.30;;;;;;;;;;4982200;28;20042;-80
2022/01/02 05:10:08;;;;;;;6.32;3.22;;;;;;;;;;4983744;28;20038;-80
2022/01/02 05:12:34;;;;;;;5.38;2.90;;;;;;;;;;4983620;28;20032;-80
2022/01/02 05:15:00;;;;;;;3.53;2.35;;;;;;;;;;4981009;28;20521;-80
2022/01/02 05:17:26;;;;;;;4.20;2.85;;;;;;;;;;4989084;28;20099;-81
2022/01/02 05:19:52;;;;;;;6.47;3.78;;;;;;;;;;5017235;28;20062;-80
2022/01/02 05:22:19;;;;;;;4.57;2.92;;;;;;;;;;4982812;28;20035;-81
2022/01/02 05:24:45;;;;;;;4.40;2.55;;;;;;;;;;4978367;28;20045;-81
2022/01/02 05:27:11;;;;;;;5.35;2.58;;;;;;;;;;4986970;28;20117;-80
2022/01/02 05:29:36;;;;;;;6.18;2.88;;;;;;;;;;4977375;28;20072;-80
2022/01/02 05:32:03;;;;;;;5.78;2.25;;;;;;;;;;4990990;28;20045;-81
2022/01/02 05:34:29;;;;;;;5.13;3.00;;;;;;;;;;4989365;28;20049;-80
2022/01/02 05:36:54;;;;;;;7.05;2.80;;;;;;;;;;4990085;28;22041;-81
2022/01/02 05:39:21;;;;;;;7.70;3.05;;;;;;;;;;4989553;28;20030;-80
2022/01/02 05:41:48;;;;;;;9.00;2.80;;;;;;;;;;4979080;28;20696;-82
2022/01/02 05:44:15;;;;;;;7.53;3.00;;;;;;;;;;4976518;28;20043;-81
2022/01/02 05:46:41;;;;;;;4.70;2.47;;;;;;;;;;4986624;28;20129;-81
2022/01/02 05:49:07;;;;;;;5.32;3.45;;;;;;;;;;4986036;28;20050;-80
2022/01/02 05:51:33;;;;;;;8.43;2.60;;;;;;;;;;4982815;28;20542;-80
2022/01/02 05:53:59;;;;;;;8.23;3.30;;;;;;;;;;4983923;28;20038;-80
2022/01/02 05:56:25;;;;;;;5.45;2.30;;;;;;;;;;4982743;28;20094;-80
2022/01/02 05:58:51;;;;;;;5.32;2.85;;;;;;;;;;4983229;28;20030;-82
2022/01/02 06:01:17;;;;;;;8.10;3.40;;;;;;;;;;4984806;28;20096;-82
2022/01/02 06:03:43;;;;;;;4.03;1.83;;;;;;;;;;4987148;28;20030;-81
2022/01/02 06:06:09;;;;;;;5.75;2.33;;;;;;;;;;4992034;28;20080;-81
2022/01/02 06:08:35;;;;;;;6.75;2.88;;;;;;;;;;4982121;28;20034;-81
2022/01/02 06:11:01;;;;;;;4.82;2.42;;;;;;;;;;4997111;28;20030;-81
2022/01/02 06:13:27;;;;;;;5.10;2.83;;;;;;;;;;4973824;28;20484;-81
2022/01/02 06:15:53;;;;;;;4.30;2.72;;;;;;;;;;4978353;28;20019;-82
2022/01/02 06:18:19;;;;;;;7.97;3.45;;;;;;;;;;4985827;28;20049;-81
2022/01/02 06:20:45;;;;;;;5.55;2.47;;;;;;;;;;4983609;28;20027;-82
2022/01/02 06:23:11;;;;;;;6.03;2.95;;;;;;;;;;4979071;28;20041;-81
2022/01/02 06:25:37;;;;;;;3.95;2.05;;;;;;;;;;4983989;28;20036;-81
2022/01/02 06:28:03;;;;;;;3.28;2.28;;;;;;;;;;4981672;28;20050;-80
2022/01/02 06:30:29;;;;;;;5.60;2.65;;;;;;;;;;4989600;28;20030;-80
2022/01/02 06:32:55;;;;;;;4.72;2.22;;;;;;;;;;4972611;28;20402;-81
2022/01/02 06:35:23;;;;;;;4.03;2.95;;;;;;;;;;4981034;28;20095;-80
2022/01/02 06:37:49;;;;;;;5.20;2.53;;;;;;;;;;4980534;28;20019;-81
2022/01/02 06:40:15;;;;;;;7.15;2.70;;;;;;;;;;4975049;28;20042;-80
2022/01/02 06:42:41;;;;;;;5.75;2.67;;;;;;;;;;4978376;28;20038;-82
2022/01/02 06:45:07;;;;;;;7.18;3.15;;;;;;;;;;4990138;28;20034;-81
2022/01/02 06:47:33;;;;;;;6.38;2.90;;;;;;;;;;4982590;28;20034;-82
2022/01/02 06:49:59;;;;;;;4.53;2.65;;;;;;;;;;4977552;28;20060;-81
2022/01/02 06:52:26;;;;;;;7.22;3.38;;;;;;;;;;4977417;28;20138;-80
2022/01/02 06:54:55;;;;;;;6.07;2.47;;;;;;;;;;4974489;28;20544;-80
2022/01/02 06:57:21;;;;;;;4.78;2.10;;;;;;;;;;4981514;28;20083;-81
2022/01/02 06:59:48;;;;;;;7.13;3.00;;;;;;;;;;4972492;28;20036;-80
2022/01/02 07:02:14;;;;;;;6.57;3.55;;;;;;;;;;4975791;28;20056;-83
2022/01/02 07:04:40;;;;;;;10.30;4.45;;;;;;;;;;4984330;28;20018;-82
2022/01/02 07:07:06;;;;;;;7.07;2.65;;;;;;;;;;4977235;28;20026;-81
2022/01/02 07:09:32;;;;;;;8.27;4.07;;;;;;;;;;4989426;28;20050;-80
2022/01/02 07:11:59;;;;;;;6.22;3.03;;;3.70;99.90;;;;;;4977924;28;20030;-80
2022/01/02 07:14:27;;;;;;;6.35;3.08;;;;;;;;;;4966662;28;20049;-82
2022/01/02 07:16:56;;;;;;;9.60;3.05;;;;;;;;;;4980093;28;20019;-81
2022/01/02 07:19:22;;;;;;;6.00;2.83;;;;;;;;;;5003738;28;20117;-81
2022/01/02 07:21:49;;;;;;;9.50;2.72;;;;;;;;;;4975996;28;20034;-81
2022/01/02 07:24:15;;;;;;;9.57;4.10;;;;;;;;;;4990169;28;20142;-81
2022/01/02 07:26:41;;;;;;;16.20;4.28;;;;;;;;;;4986855;28;20473;-82
2022/01/02 07:29:07;;;;;;;14.95;6.57;;;;;;;;;;4977116;28;20038;-82
2022/01/02 07:31:33;;;;;;;13.15;5.03;;;;;;;;;;4971657;28;20389;-80
2022/01/02 07:33:59;;;;;;;11.70;5.50;;;;;;;;;;4980142;28;20037;-81
2022/01/02 07:36:25;;;;;;;11.90;3.45;;;;;;;;;;4970556;28;20042;-81
2022/01/02 07:38:51;;;;;;;15.05;4.28;;;;;;;;;;4980615;28;20173;-81
2022/01/02 07:41:17;;;;;;;6.35;2.90;;;;;;;;;;4983673;28;20053;-80
2022/01/02 07:43:43;;;;;;;5.03;2.53;;;;;;;;;;4969213;28;20041;-80
2022/01/02 07:46:09;;;;;;;8.05;3.30;;;;;;;;;;4972945;28;20088;-81
2022/01/02 07:48:35;;;;;;;4.18;2.78;;;;;;;;;;4985625;28;20125;-82
2022/01/02 07:51:01;;;;;;;7.82;2.97;;;;;;;;;;4981755;28;20176;-80
2022/01/02 07:53:27;;;;;;;6.70;2.88;;;;;;;;;;4979066;28;20663;-81
2022/01/02 07:55:53;;;;;;;7.88;2.90;;;;;;;;;;4978745;28;20034;-81
2022/01/02 07:58:19;;;;;;;5.07;2.67;;;;;;;;;;4972694;28;20037;-82
2022/01/02 08:00:45;;;;;;;5.00;2.47;;;;;;;;;;4977143;28;20045;-81
2022/01/02 08:03:11;;;;;;;4.55;2.70;;;;;;;;;;4974868;28;20030;-80
2022/01/02 08:05:37;;;;;;;4.80;2.67;;;;;;;;;;4973848;28;20035;-81
2022/01/02 08:08:03;;;;;;;6.38;2.65;;;;;;;;;;4984203;28;20030;-80
2022/01/02 08:10:29;;;;;;;5.35;2.95;;;;;;;;;;4991601;28;20045;-81
2022/01/02 08:12:55;;;;;;;4.50;2.55;;;;;;;;;;4985135;28;20034;-82
2022/01/02 08:15:21;;;;;;;5.00;2.47;;;;;;;;;;5005733;28;20121;-81
2022/01/02 08:17:47;;;;;;;5.68;2.92;;;;;;;;;;4980660;28;20023;-82
2022/01/02 08:20:13;;;;;;;10.52;4.00;;;;;;;;;;4976162;28;20022;-81
2022/01/02 08:22:40;;;;;;;8.55;3.72;;;;;;;;;;4978847;28;20019;-80
2022/01/02 08:25:06;;;;;;;9.27;4.60;;;;;;;;;;4979759;28;20561;-80
2022/01/02 08:27:32;;;;;;;10.80;4.60;;;;;;;;;;4974625;28;20072;-82
2022/01/02 08:29:58;;;;;;;9.63;4.28;;;;;;;;;;4977215;28;21723;-82
2022/01/02 08:32:25;;;;;;;18.20;8.93;;;;;;;;;;4972784;28;20050;-81
2022/01/02 08:34:51;;;;;;;35.83;13.30;;;;;;;;;;4972766;28;20030;-82
2022/01/02 08:37:17;;;;;;;25.60;12.00;;;;;;;;;;4978224;28;20474;-82
2022/01/02 08:39:44;;;;;;;25.50;10.90;;;;;;;;;;4981666;28;20481;-82
2022/01/02 08:42:10;;;;;;;22.50;8.63;;;;;;;;;;4981572;28;20057;-82
2022/01/02 08:44:38;;;;;;;11.10;3.97;;;;;;;;;;4988634;28;20092;-80
2022/01/02 08:47:04;;;;;;;13.95;4.57;;;;;;;;;;4976241;28;20046;-80
2022/01/02 08:49:30;;;;;;;11.55;5.57;;;;;;;;;;4978709;28;20049;-81
2022/01/02 08:51:56;;;;;;;7.25;3.55;;;;;;;;;;4987729;28;20031;-82
2022/01/02 08:54:22;;;;;;;7.40;4.22;;;;;;;;;;4984337;28;20034;-81
2022/01/02 08:56:48;;;;;;;8.05;3.95;;;;;;;;;;4983982;28;20179;-82
2022/01/02 08:59:14;;;;;;;8.70;3.63;;;;;;;;;;4981456;28;20041;-82
2022/01/02 09:01:40;;;;;;;13.55;4.63;;;;;;;;;;4988549;28;20026;-81
2022/01/02 09:04:06;;;;;;;10.52;4.15;;;;;;;;;;4987079;28;20436;-80
2022/01/02 09:06:32;;;;;;;6.43;3.28;;;;;;;;;;4982610;28;20028;-82
2022/01/02 09:08:58;;;;;;;8.68;4.35;;;;;;;;;;4978626;28;20074;-83
2022/01/02 09:11:24;;;;;;;6.68;3.25;;;;;;;;;;4992657;28;20505;-81
2022/01/02 09:13:50;;;;;;;14.73;4.57;;;;;;;;;;4983267;28;20030;-83
2022/01/02 09:16:16;;;;;;;8.10;4.28;;;;;;;;;;4997858;28;20080;-82
2022/01/02 09:18:42;;;;;;;10.15;5.43;;;;;;;;;;4989302;28;20117;-82
2022/01/02 09:21:08;;;;;;;6.18;3.85;;;;;;;;;;4989143;28;20014;-81
2022/01/02 09:23:34;;;;;;;8.80;3.58;;;;;;;;;;4981376;28;20100;-81
2022/01/02 09:26:00;;;;;;;8.18;3.78;;;;;;;;;;4973272;28;20639;-81
2022/01/02 09:28:26;;;;;;;15.00;4.45;;;;;;;;;;4977170;28;20479;-82
2022/01/02 09:30:52;;;;;;;8.40;4.93;;;;;;;;;;4978517;28;20038;-81
2022/01/02 09:33:18;;;;;;;6.75;3.45;;;;;;;;;;4982234;28;20025;-82
2022/01/02 09:35:44;;;;;;;10.07;4.43;;;;;;;;;;5012696;27;20030;-82
2022/01/02 09:38:10;;;;;;;9.13;4.63;;;;;;;;;;4976760;28;20034;-81
2022/01/02 09:40:36;;;;;;;10.23;4.47;;;;;;;;;;4987618;28;20311;-81
2022/01/02 09:43:02;;;;;;;14.38;5.18;;;;;;;;;;4973080;28;20030;-82
2022/01/02 09:45:28;;;;;;;12.18;5.65;;;;;;;;;;4983392;28;20064;-82
2022/01/02 09:47:54;;;;;;;10.50;4.97;;;;;;;;;;4979476;28;20026;-82
2022/01/02 09:50:21;;;;;;;10.73;4.60;;;;;;;;;;4982114;28;20057;-81
2022/01/02 09:52:47;;;;;;;11.45;4.55;;;;;;;;;;4988331;28;20095;-83
2022/01/02 09:55:13;;;;;;;10.60;4.40;;;;;;;;;;4975741;28;20140;-82
2022/01/02 09:57:43;;;;;;;11.95;5.32;;;;;;;;;;4979460;28;20045;-81
2022/01/02 10:00:10;;;;;;;9.68;4.32;;;;;;;;;;4981429;28;20093;-82
2022/01/02 10:02:55;;;;;;;9.40;3.50;;;;;;;;;;4985011;28;20076;-82
2022/01/02 10:05:24;;;;;;;7.45;4.03;;;;;;;;;;4973215;28;20058;-82
2022/01/02 10:07:50;;;;;;;12.80;4.80;;;;;;;;;;4982359;28;20792;-82
2022/01/02 10:10:16;;;;;;;13.52;5.07;;;;;;;;;;4986658;28;20410;-83
2022/01/02 10:12:42;;;;;;;9.20;4.75;;;;;;;;;;4985339;28;20023;-80
2022/01/02 10:15:24;;;;;;;8.75;4.43;;;;;;;;;;5004751;28;20034;-84
2022/01/02 10:17:50;;;;;;;9.77;3.95;;;;;;;;;;4990707;28;20057;-81
2022/01/02 10:20:16;;;;;;;11.30;3.58;;;;;;;;;;4978242;28;20098;-81
2022/01/02 10:23:02;;;;;;;6.53;3.30;;;;;;;;;;4972812;28;20375;-81
2022/01/02 10:25:40;;;;;;;11.20;3.00;;;;;;;;;;4977829;28;20053;-81
2022/01/02 10:28:28;;;;;;;8.02;2.88;;;;;;;;;;4976341;28;20038;-80
2022/01/02 10:30:55;;;;;;;7.57;3.08;;;;;;;;;;4980246;28;20046;-81
2022/01/02 10:33:21;;;;;;;8.57;3.10;;;;;;;;;;4979902;28;20050;-80
2022/01/02 10:35:47;;;;;;;9.18;3.28;;;;;;;;;;4976283;28;20030;-80
2022/01/02 10:38:17;;;;;;;7.15;2.88;;;;;;;;;;4976550;28;20586;-81
2022/01/02 10:40:44;;;;;;;7.10;2.88;;;;;;;;;;4974441;28;20471;-79
2022/01/02 10:43:11;;;;;;;5.95;2.80;;;;;;;;;;4976283;28;20841;-80
2022/01/02 10:45:37;;;;;;;7.68;3.80;;;;;;;;;;4987479;28;20381;-79
2022/01/02 10:48:06;;;;;;;7.82;3.67;;;;;;;;;;4981419;28;20049;-81
2022/01/02 10:50:32;;;;;;;5.07;2.72;;;;;;;;;;4976437;28;20111;-80
2022/01/02 10:53:10;;;;;;;5.45;2.90;;;;;;;;;;4998843;28;20291;-80
2022/01/02 10:55:36;;;;;;;7.68;2.97;;;;;;;;;;4988596;28;20037;-79
2022/01/02 10:58:05;;;;;;;8.88;3.13;;;;;;;;;;4970823;28;20030;-80
2022/01/02 11:00:31;;;;;;;7.95;3.47;;;;;;;;;;4993632;28;20061;-80
2022/01/02 11:02:59;;;;;;;4.60;2.47;;;8.10;99.90;;;;;;4980979;28;20034;-80
2022/01/02 11:05:27;;;;;;;9.32;3.35;;;;;;;;;;4980691;28;20034;-80
2022/01/02 11:07:58;;;;;;;5.80;2.75;;;;;;;;;;4976801;28;20569;-80
2022/01/02 11:10:25;;;;;;;5.60;3.10;;;8.00;99.90;;;;;;4987216;28;20089;-80
2022/01/02 11:12:53;;;;;;;6.32;3.05;;;;;;;;;;4968636;28;20049;-82
2022/01/02 11:15:20;;;;;;;7.15;2.92;;;;;;;;;;4986214;28;20069;-80
2022/01/02 11:17:46;;;;;;;7.03;3.80;;;;;;;;;;4976418;28;20049;-80
2022/01/02 11:20:14;;;;;;;6.60;2.45;;;;;;;;;;4985147;28;20037;-80
2022/01/02 11:22:47;;;;;;;7.50;3.08;;;;;;;;;;4978364;28;20159;-80
2022/01/02 11:25:17;;;;;;;10.23;4.00;;;;;;;;;;4973119;28;20031;-82
2022/01/02 11:27:45;;;;;;;6.40;2.50;;;;;;;;;;4976120;28;20038;-82
2022/01/02 11:30:29;;;;;;;6.53;3.10;;;;;;;;;;4973781;28;20085;-82
2022/01/02 11:33:06;;;;;;;12.40;3.70;;;;;;;;;;4973169;28;20527;-81
2022/01/02 11:35:32;;;;;;;7.00;3.53;;;;;;;;;;4965908;28;20040;-82
2022/01/02 11:38:19;;;;;;;4.43;3.05;;;;;;;;;;4969912;28;20035;-81
2022/01/02 11:41:03;;;;;;;5.78;2.95;;;;;;;;;;4971562;28;20116;-81
2022/01/02 11:43:35;;;;;;;8.68;3.20;;;;;;;;;;4970358;28;20035;-81
2022/01/02 11:46:15;;;;;;;5.20;2.65;;;;;;;;;;4981712;28;20031;-81
2022/01/02 11:48:41;;;;;;;8.15;3.63;;;;;;;;;;4974301;28;20023;-80
2022/01/02 11:51:06;;;;;;;14.02;4.72;;;;;;;;;;4986733;28;20290;-81
2022/01/02 11:53:36;;;;;;;17.02;6.38;;;;;;;;;;4969874;28;20026;-81
2022/01/02 11:56:03;;;;;;;17.83;6.38;;;;;;;;;;4977435;28;20042;-81
2022/01/02 11:58:38;;;;;;;13.10;3.90;;;;;;;;;;4971272;28;20061;-80
2022/01/02 12:01:04;;;;;;;14.18;4.63;;;;;;;;;;4972856;28;20088;-81
2022/01/02 12:03:39;;;;;;;10.77;4.68;;;;;;;;;;4991012;28;20022;-82
2022/01/02 12:06:20;;;;;;;7.88;3.40;;;;;;;;;;4987850;28;20113;-82
2022/01/02 12:08:46;;;;;;;6.85;3.10;;;;;;;;;;4975444;28;20130;-83
2022/01/02 12:11:30;;;;;;;7.90;3.10;;;;;;;;;;4971121;28;20038;-82
2022/01/02 12:14:03;;;;;;;4.95;2.45;;;8.40;99.90;;;;;;4970669;28;20087;-80
2022/01/02 12:16:35;;;;;;;5.57;3.15;;;;;;;;;;4974180;28;20026;-80
2022/01/02 12:19:02;;;;;;;5.22;2.60;;;;;;;;;;4973719;28;20571;-80
2022/01/02 12:21:28;;;;;;;6.63;2.55;;;;;;;;;;4974665;28;20044;-81
2022/01/02 12:23:55;;;;;;;7.38;3.42;;;;;;;;;;4974818;28;20030;-80
2022/01/02 12:26:28;;;;;;;7.95;3.38;;;;;;;;;;4993241;28;20117;-81
2022/01/02 12:28:59;;;;;;;5.25;2.97;;;;;;;;;;4980192;28;20422;-80
2022/01/02 12:31:38;;;;;;;5.72;2.53;;;;;;;;;;4987234;28;20034;-81
2022/01/02 12:34:04;;;;;;;5.72;2.65;;;;;;;;;;4988080;28;20034;-80
2022/01/02 12:36:30;;;;;;;8.73;2.67;;;;;;;;;;4999357;28;20022;-81
2022/01/02 12:39:01;;;;;;;5.75;2.78;;;;;;;;;;4976475;28;20527;-80
2022/01/02 12:41:28;;;;;;;5.78;2.67;;;;;;;;;;4979318;28;20035;-81
2022/01/02 12:44:02;;;;;;;7.45;3.20;;;;;;;;;;4971588;28;20034;-80
2022/01/02 12:46:40;;;;;;;4.60;2.05;;;;;;;;;;4979635;28;20034;-81
2022/01/02 12:49:07;;;;;;;5.53;2.90;;;;;;;;;;4980748;28;20076;-80
2022/01/02 12:51:34;;;;;;;6.90;2.90;;;;;;;;;;5005234;28;20029;-82
2022/01/02 12:54:00;;;;;;;5.35;2.38;;;;;;;;;;4979258;28;20058;-81
2022/01/02 12:56:30;;;;;;;6.32;2.60;;;;;;;;;;4980204;28;20065;-80
2022/01/02 12:59:11;;;;;;;6.55;2.63;;;;;;;;;;4992750;28;20094;-82
2022/01/02 13:01:47;;;;;;;5.13;2.67;;;;;;;;;;4956474;28;20034;-79
2022/01/02 13:04:17;;;;;;;5.47;2.88;;;;;;;;;;4965275;28;20030;-79
2022/01/02 13:06:47;;;;;;;6.10;2.67;;;;;;;;;;4977669;28;20031;-80
2022/01/02 13:09:25;;;;;;;5.38;2.60;;;;;;;;;;4969805;28;20453;-80
2022/01/02 13:11:51;;;;;;;5.05;2.80;;;;;;;;;;4987437;28;20125;-80
2022/01/02 13:14:37;;;;;;;9.50;3.28;;;;;;;;;;4975836;28;20050;-79
2022/01/02 13:17:06;;;;;;;5.68;2.58;;;;;;;;;;4975389;28;20048;-79
2022/01/02 13:19:33;;;;;;;3.50;2.25;;;;;;;;;;4966449;28;20483;-84
2022/01/02 13:21:59;;;;;;;5.18;2.30;;;;;;;;;;4975348;28;20393;-79
2022/01/02 13:24:34;;;;;;;5.68;2.85;;;10.10;99.90;;;;;;4977207;28;20073;-80
2022/01/02 13:27:02;;;;;;;5.88;2.35;;;;;;;;;;4983527;28;20758;-80
2022/01/02 13:29:28;;;;;;;8.25;2.80;;;;;;;;;;4973499;28;20516;-79
2022/01/02 13:31:57;;;;;;;4.60;2.80;;;;;;;;;;4977046;28;20026;-80
2022/01/02 13:34:27;;;;;;;5.30;2.67;;;;;;;;;;4984144;28;20027;-79
2022/01/02 13:37:00;;;;;;;4.80;2.80;;;;;;;;;;4978847;28;20033;-78
2022/01/02 13:39:42;;;;;;;7.10;3.08;;;;;;;;;;4964824;28;20965;-79
2022/01/02 13:42:08;;;;;;;5.30;2.78;;;;;;;;;;4989848;28;20709;-79
2022/01/02 13:44:47;;;;;;;3.88;1.95;;;;;;;;;;4979203;28;20042;-78
2022/01/02 13:47:13;;;;;;;4.88;2.42;;;;;;;;;;4978424;28;20041;-78
2022/01/02 13:49:44;;;;;;;7.03;2.80;;;10.00;99.90;;;;;;4977957;28;20577;-79
2022/01/02 13:52:10;;;;;;;4.68;2.40;;;;;;;;;;4978658;28;20666;-82
2022/01/02 13:54:36;;;;;;;6.43;2.35;;;;;;;;;;4961710;28;20030;-82
2022/01/02 13:57:05;;;;;;;7.80;2.47;;;;;;;;;;4980222;28;20072;-82
2022/01/02 13:59:38;;;;;;;10.98;2.92;;;;;;;;;;4993193;28;20865;-81
2022/01/02 14:02:04;;;;;;;7.07;3.10;;;;;;;;;;4980443;28;20058;-81
2022/01/02 14:04:50;;;;;;;5.60;2.33;;;;;;;;;;4984492;28;20027;-82
2022/01/02 14:07:16;;;;;;;7.40;3.70;;;;;;;;;;4984798;28;20041;-83
2022/01/02 14:09:49;;;;;;;5.45;2.78;;;;;;;;;;5022694;28;20431;-83
2022/01/02 14:12:20;;;;;;;;;;;;;;;;;;4996776;28;20022;-85
2022/01/02 14:14:56;;;;;;;6.25;3.25;;;;;;;;;;4985805;28;20044;-82
2022/01/02 14:17:33;;;;;;;7.03;3.50;;;;;;;;;;4979201;28;20041;-82
2022/01/02 14:20:01;;;;;;;7.15;3.03;;;10.00;99.90;;;;;;4984524;28;20470;-81
2022/01/02 14:22:27;;;;;;;5.60;2.83;;;;;;;;;;4998853;28;20107;-82
2022/01/02 14:24:54;;;;;;;9.65;3.65;;;;;;;;;;4986756;28;20026;-83
2022/01/02 14:27:24;;;;;;;6.07;2.33;;;;;;;;;;4979991;28;20030;-82
2022/01/02 14:29:51;;;;;;;5.07;2.53;;;;;;;;;;4987365;28;20046;-82
2022/01/02 14:32:17;;;;;;;6.45;3.22;;;;;;;;;;4981169;28;20069;-82
2022/01/02 14:34:43;;;;;;;5.68;2.83;;;;;;;;;;4981104;28;20024;-82
2022/01/02 14:37:10;;;;;;;6.72;3.03;;;;;;;;;;4984501;28;20034;-82
2022/01/02 14:39:36;;;;;;;5.68;2.58;;;;;;;;;;4977645;28;20034;-83
2022/01/02 14:42:03;;;;;;;2.88;1.55;;;;;;;;;;4988857;28;20061;-82
2022/01/02 14:44:28;;;;;;;5.72;2.95;;;;;;;;;;4979483;28;20034;-80
2022/01/02 14:46:54;;;;;;;7.90;3.30;;;;;;;;;;4983174;28;20137;-83
2022/01/02 14:49:21;;;;;;;12.18;4.20;;;;;;;;;;4979894;28;20047;-81
2022/01/02 14:51:47;;;;;;;7.50;2.55;;;;;;;;;;4992585;28;20018;-81